メインページ
METAR-TAF:

METAR-TAF

空港 :

ウィニペグ・ジェームス・アームストロング・リチャードソン国際空港

ウィニペグ, マニトバ州, カナダ

緯度: 49-54N, 経度: 097-14W, 海抜: 239m

現時点の気象観測

当レポートは59分前の04:00(UTC)に作成
の風 15kt
気温 -3°C
湿度 80%
気圧 1014 hPa
視程: 24.1km
晴天

METAR: CYWG 150400Z 19015KT 15SM SKC M03/M06 A2993 RMK SLP150

時間: 22:59 (04:59 UTC)

予報

当レポートは5時間11分前の23:48(UTC)に作成
予報は15日の 00時(UTC)から 15日の 24時(UTC)まで有効
の風 15kt
視程: 10km
高度22000ftの雲はほとんどない
15日の 1800時(UTC)から
の風 18kt、最大28ktの突風を伴う
視程: 10km
高度24000ftの千切れ雲あり

TAF: CYWG 142348Z 1500/1524 19015KT P6SM FEW220 FM151800 19018G28KT P6SM BKN240 RMK NXT FCST BY 150600Z

4,000以上の空港の気象観測と天気予報(METAR報とTAF報)

利用可能な観測所は地図上に黄色い丸と赤い丸で示す。

丸の上にカーソルを重ねると観測所名を参照できる。

次にクリックすると気象観測と天気予報を参照できる。

マップの切り替え:黒色「×」印の緑ボタンをクリックして拡大、「-」印の緑ボタンをクリックして縮小、緑色の三角印をクリックして隣りの地図に切り替え


METAR-TAF: